RYR88DV LEAL-EGGW
Flight info
| Callsign | RYR88DV |
|---|---|
| Flight time | N/A |
| Altitude | 38000 |
| Route | MITOS N608 COMPI Y90 USKAR DCT MOPAS DCT GIROM DCT GONUP DCT TUPAR UN861 DIKRO UM185 LUGIS M185 TELTU |
| Aircraft | B738/M-SDE2E3FGHIRWXY/LB1 |
Departure
| Time | 2026-05-03 21:24 |
|---|---|
| Airport | Alicante-Elche Miguel Hernández Airport (LEAL) |
Arrival
| Time | N/A |
|---|---|
| Airport | London Luton Airport (EGGW) |
| Time | Latitude | Longitude | Altitude | Speed | Heading |
|---|---|---|---|---|---|
| 2026-05-03 20:41 | 38.28547 | -0.55452 | 89 ft | 0 kts | 11° |
| 2026-05-03 21:09 | 38.28535 | -0.55455 | 90 ft | 3 kts | 7° |
| 2026-05-03 21:10 | 38.28517 | -0.55456 | 90 ft | 3 kts | 357° |
| 2026-05-03 21:10 | 38.28494 | -0.55452 | 91 ft | 3 kts | 338° |
| 2026-05-03 21:10 | 38.28476 | -0.55438 | 91 ft | 3 kts | 300° |
| 2026-05-03 21:10 | 38.28471 | -0.55425 | 89 ft | 2 kts | 280° |
| 2026-05-03 21:15 | 38.28472 | -0.55432 | 89 ft | 3 kts | 281° |
| 2026-05-03 21:15 | 38.28481 | -0.55493 | 94 ft | 11 kts | 279° |
| 2026-05-03 21:16 | 38.28473 | -0.55590 | 95 ft | 11 kts | 221° |
| 2026-05-03 21:16 | 38.28410 | -0.55611 | 96 ft | 8 kts | 191° |
| 2026-05-03 21:16 | 38.28380 | -0.55642 | 98 ft | 4 kts | 251° |
| 2026-05-03 21:16 | 38.28377 | -0.55676 | 99 ft | 5 kts | 272° |
| 2026-05-03 21:17 | 38.28386 | -0.55746 | 100 ft | 11 kts | 280° |
| 2026-05-03 21:17 | 38.28397 | -0.55824 | 102 ft | 16 kts | 281° |
| 2026-05-03 21:17 | 38.28428 | -0.56054 | 107 ft | 24 kts | 279° |
| 2026-05-03 21:17 | 38.28460 | -0.56279 | 108 ft | 26 kts | 280° |
| 2026-05-03 21:18 | 38.28487 | -0.56487 | 114 ft | 21 kts | 280° |
| 2026-05-03 21:18 | 38.28512 | -0.56656 | 120 ft | 17 kts | 279° |
| 2026-05-03 21:18 | 38.28529 | -0.56785 | 121 ft | 12 kts | 278° |
| 2026-05-03 21:18 | 38.28543 | -0.56876 | 127 ft | 10 kts | 281° |
| 2026-05-03 21:19 | 38.28555 | -0.56962 | 134 ft | 10 kts | 278° |
| 2026-05-03 21:19 | 38.28565 | -0.57045 | 137 ft | 10 kts | 278° |
| 2026-05-03 21:19 | 38.28580 | -0.57147 | 141 ft | 13 kts | 281° |
| 2026-05-03 21:19 | 38.28599 | -0.57273 | 147 ft | 16 kts | 279° |
| 2026-05-03 21:20 | 38.28606 | -0.57384 | 151 ft | 9 kts | 255° |
| 2026-05-03 21:20 | 38.28577 | -0.57423 | 152 ft | 4 kts | 202° |
| 2026-05-03 21:20 | 38.28549 | -0.57433 | 153 ft | 5 kts | 193° |
| 2026-05-03 21:20 | 38.28485 | -0.57447 | 154 ft | 14 kts | 189° |
| 2026-05-03 21:21 | 38.28440 | -0.57399 | 152 ft | 8 kts | 97° |
| 2026-05-03 21:21 | 38.28435 | -0.57370 | 150 ft | 0 kts | 102° |
| 2026-05-03 21:21 | 38.28434 | -0.57370 | 150 ft | 0 kts | 102° |
| 2026-05-03 21:23 | 38.28419 | -0.57264 | 145 ft | 43 kts | 100° |
| 2026-05-03 21:23 | 38.28411 | -0.57211 | 143 ft | 52 kts | 100° |
| 2026-05-03 21:23 | 38.28305 | -0.56452 | 114 ft | 120 kts | 99° |
| 2026-05-03 21:23 | 38.28123 | -0.55157 | 139 ft | 168 kts | 100° |
| 2026-05-03 21:24 | 38.27910 | -0.53716 | 799 ft | 170 kts | 101° |
| 2026-05-03 21:24 | 38.27679 | -0.52199 | 1434 ft | 180 kts | 101° |
| 2026-05-03 21:24 | 38.27424 | -0.50581 | 1767 ft | 191 kts | 101° |
| 2026-05-03 21:24 | 38.27514 | -0.48859 | 1954 ft | 206 kts | 65° |
| 2026-05-03 21:25 | 38.28272 | -0.47284 | 2213 ft | 213 kts | 58° |
| 2026-05-03 21:25 | 38.29086 | -0.45728 | 2752 ft | 207 kts | 56° |
| 2026-05-03 21:25 | 38.29896 | -0.44226 | 3134 ft | 210 kts | 56° |
| 2026-05-03 21:25 | 38.30755 | -0.42643 | 3418 ft | 224 kts | 57° |
| 2026-05-03 21:26 | 38.31633 | -0.40953 | 3765 ft | 238 kts | 57° |
| 2026-05-03 21:26 | 38.32582 | -0.39100 | 3970 ft | 259 kts | 58° |
| 2026-05-03 21:26 | 38.33393 | -0.37002 | 4453 ft | 269 kts | 69° |
| 2026-05-03 21:26 | 38.34057 | -0.34756 | 5045 ft | 273 kts | 69° |
| 2026-05-03 21:27 | 38.34730 | -0.32477 | 5670 ft | 277 kts | 69° |
| 2026-05-03 21:27 | 38.35427 | -0.30177 | 6314 ft | 280 kts | 68° |
| 2026-05-03 21:27 | 38.36144 | -0.27843 | 6915 ft | 285 kts | 68° |
| 2026-05-03 21:27 | 38.36906 | -0.25497 | 7514 ft | 289 kts | 66° |
| 2026-05-03 21:28 | 38.37703 | -0.23121 | 8124 ft | 294 kts | 67° |
| 2026-05-03 21:28 | 38.38514 | -0.20710 | 8753 ft | 299 kts | 67° |
| 2026-05-03 21:28 | 38.39338 | -0.18252 | 9000 ft | 303 kts | 67° |
| 2026-05-03 21:28 | 38.40163 | -0.15781 | 8998 ft | 302 kts | 67° |
| 2026-05-03 21:29 | 38.40982 | -0.13322 | 9007 ft | 301 kts | 68° |
| 2026-05-03 21:29 | 38.41799 | -0.10865 | 9016 ft | 301 kts | 68° |
| 2026-05-03 21:29 | 38.42618 | -0.08400 | 9029 ft | 304 kts | 68° |
| 2026-05-03 21:29 | 38.43449 | -0.05893 | 9431 ft | 311 kts | 68° |
| 2026-05-03 21:30 | 38.44511 | -0.03474 | 10054 ft | 316 kts | 47° |
| 2026-05-03 21:30 | 38.46291 | -0.01787 | 10382 ft | 329 kts | 19° |
| 2026-05-03 21:30 | 38.48565 | -0.01226 | 10586 ft | 341 kts | 358° |
| 2026-05-03 21:30 | 38.50979 | -0.01184 | 11015 ft | 351 kts | 356° |
| 2026-05-03 21:31 | 38.53437 | -0.01198 | 11619 ft | 355 kts | 355° |
| 2026-05-03 21:31 | 38.55920 | -0.01220 | 12287 ft | 359 kts | 355° |
| 2026-05-03 21:31 | 38.58425 | -0.01236 | 12956 ft | 363 kts | 355° |
| 2026-05-03 21:31 | 38.60972 | -0.01243 | 13621 ft | 368 kts | 355° |
| 2026-05-03 21:32 | 38.63546 | -0.01241 | 14249 ft | 372 kts | 355° |
| 2026-05-03 21:32 | 38.66138 | -0.01232 | 14975 ft | 374 kts | 355° |
| 2026-05-03 21:32 | 38.68757 | -0.01219 | 15649 ft | 378 kts | 355° |
| 2026-05-03 21:32 | 38.71403 | -0.01203 | 16278 ft | 382 kts | 355° |
| 2026-05-03 21:33 | 38.74073 | -0.01187 | 16895 ft | 386 kts | 355° |
| 2026-05-03 21:33 | 38.76763 | -0.01169 | 17581 ft | 388 kts | 355° |
| 2026-05-03 21:33 | 38.79479 | -0.01151 | 18219 ft | 393 kts | 355° |
| 2026-05-03 21:33 | 38.82219 | -0.01133 | 18820 ft | 395 kts | 355° |
| 2026-05-03 21:34 | 38.84983 | -0.01114 | 19389 ft | 398 kts | 355° |
| 2026-05-03 21:34 | 38.87761 | -0.01096 | 19942 ft | 401 kts | 355° |
| 2026-05-03 21:34 | 38.90561 | -0.01077 | 20534 ft | 404 kts | 355° |
| 2026-05-03 21:34 | 38.93382 | -0.01058 | 21087 ft | 407 kts | 355° |
| 2026-05-03 21:35 | 38.96184 | -0.01040 | 21605 ft | 410 kts | 355° |
| 2026-05-03 21:35 | 38.99087 | -0.01021 | 22131 ft | 414 kts | 355° |
| 2026-05-03 21:35 | 39.01974 | -0.01002 | 22661 ft | 417 kts | 355° |
| 2026-05-03 21:35 | 39.04846 | -0.00983 | 23172 ft | 420 kts | 355° |
| 2026-05-03 21:36 | 39.07774 | -0.00963 | 23661 ft | 423 kts | 355° |
| 2026-05-03 21:36 | 39.10725 | -0.00943 | 24082 ft | 425 kts | 355° |
| 2026-05-03 21:36 | 39.13694 | -0.00923 | 24534 ft | 428 kts | 355° |
| 2026-05-03 21:36 | 39.16719 | -0.00903 | 24963 ft | 430 kts | 355° |
| 2026-05-03 21:37 | 39.19678 | -0.00883 | 25385 ft | 432 kts | 355° |
| 2026-05-03 21:37 | 39.22693 | -0.00863 | 25799 ft | 434 kts | 354° |
| 2026-05-03 21:37 | 39.25721 | -0.00842 | 26210 ft | 437 kts | 354° |
| 2026-05-03 21:37 | 39.28768 | -0.00821 | 26611 ft | 439 kts | 354° |
| 2026-05-03 21:38 | 39.31830 | -0.00801 | 27005 ft | 441 kts | 354° |
| 2026-05-03 21:38 | 39.34910 | -0.00656 | 27382 ft | 448 kts | 0° |
| 2026-05-03 21:38 | 39.38001 | 0.00102 | 27754 ft | 457 kts | 10° |
| 2026-05-03 21:38 | 39.41069 | 0.01226 | 28139 ft | 460 kts | 11° |
| 2026-05-03 21:39 | 39.44142 | 0.02413 | 28491 ft | 462 kts | 12° |
| 2026-05-03 21:39 | 39.46229 | 0.03225 | 28724 ft | 464 kts | 11° |
| 2026-05-03 21:39 | 39.49330 | 0.04423 | 29072 ft | 466 kts | 11° |
| 2026-05-03 21:39 | 39.53467 | 0.05993 | 29519 ft | 469 kts | 11° |
| 2026-05-03 21:40 | 39.55546 | 0.06772 | 29742 ft | 470 kts | 11° |
| 2026-05-03 21:40 | 39.58739 | 0.07961 | 30104 ft | 472 kts | 11° |
| 2026-05-03 21:40 | 39.61865 | 0.09119 | 30344 ft | 475 kts | 11° |
| 2026-05-03 21:40 | 39.65051 | 0.10300 | 30590 ft | 477 kts | 11° |
| 2026-05-03 21:41 | 39.68248 | 0.11485 | 30863 ft | 479 kts | 11° |
| 2026-05-03 21:41 | 39.71455 | 0.12677 | 31113 ft | 481 kts | 10° |
| 2026-05-03 21:41 | 39.74722 | 0.13893 | 31360 ft | 483 kts | 10° |
| 2026-05-03 21:41 | 39.77914 | 0.15082 | 31628 ft | 484 kts | 10° |
| 2026-05-03 21:42 | 39.81145 | 0.16289 | 31999 ft | 483 kts | 11° |
| 2026-05-03 21:42 | 39.84359 | 0.17492 | 32462 ft | 479 kts | 11° |
| 2026-05-03 21:42 | 39.87554 | 0.18688 | 32877 ft | 476 kts | 10° |
| 2026-05-03 21:42 | 39.90739 | 0.19880 | 33171 ft | 477 kts | 10° |
| 2026-05-03 21:43 | 39.93929 | 0.21073 | 33432 ft | 478 kts | 10° |
| 2026-05-03 21:43 | 39.97124 | 0.22269 | 33748 ft | 477 kts | 10° |
| 2026-05-03 21:43 | 40.00309 | 0.23465 | 34079 ft | 476 kts | 10° |
| 2026-05-03 21:43 | 40.03489 | 0.24659 | 34375 ft | 475 kts | 10° |
| 2026-05-03 21:44 | 40.06665 | 0.25851 | 34624 ft | 475 kts | 11° |
| 2026-05-03 21:44 | 40.09840 | 0.27042 | 34877 ft | 475 kts | 10° |
| 2026-05-03 21:44 | 40.13013 | 0.28235 | 35120 ft | 475 kts | 10° |
| 2026-05-03 21:44 | 40.16187 | 0.29430 | 35367 ft | 474 kts | 10° |
| 2026-05-03 21:45 | 40.19356 | 0.30624 | 35595 ft | 474 kts | 10° |
| 2026-05-03 21:45 | 40.22525 | 0.31819 | 35814 ft | 474 kts | 10° |
| 2026-05-03 21:45 | 40.25694 | 0.33015 | 36061 ft | 474 kts | 11° |
| 2026-05-03 21:45 | 40.28853 | 0.34210 | 36350 ft | 471 kts | 10° |
| 2026-05-03 21:46 | 40.31997 | 0.35400 | 36629 ft | 470 kts | 10° |
| 2026-05-03 21:46 | 40.35139 | 0.36590 | 36818 ft | 470 kts | 10° |
| 2026-05-03 21:46 | 40.38280 | 0.37782 | 37015 ft | 470 kts | 10° |
| 2026-05-03 21:46 | 40.41427 | 0.38978 | 37212 ft | 469 kts | 11° |
| 2026-05-03 21:47 | 40.44551 | 0.40168 | 37464 ft | 468 kts | 11° |
| 2026-05-03 21:47 | 40.47680 | 0.41361 | 37695 ft | 467 kts | 11° |
| 2026-05-03 21:47 | 40.50801 | 0.42551 | 37895 ft | 467 kts | 11° |
| 2026-05-03 21:47 | 40.53920 | 0.43741 | 38026 ft | 468 kts | 11° |
| 2026-05-03 21:48 | 40.60191 | 0.46136 | 38010 ft | 469 kts | 11° |
| 2026-05-03 21:48 | 40.66435 | 0.48530 | 38011 ft | 465 kts | 11° |
| 2026-05-03 21:49 | 40.72628 | 0.50908 | 38000 ft | 462 kts | 11° |
| 2026-05-03 21:49 | 40.78780 | 0.53274 | 38005 ft | 459 kts | 11° |
| 2026-05-03 21:50 | 40.84901 | 0.55631 | 38007 ft | 459 kts | 11° |
| 2026-05-03 21:50 | 41.14517 | 0.67073 | 37960 ft | 462 kts | 11° |
| 2026-05-03 21:51 | 41.48072 | 0.80189 | 38101 ft | 462 kts | 11° |